• Join FlightAware (Why Join?)
  • Login
  • US Flag 
10:07PM EDT


 

Airport Tracker/Info


-or-


 

Live Flight TrackerFlight Track Log ✈ N796PG ✈ 02-Sep-2013 ✈ KFPR - KPDK

Flight Track Log - Related Links

Times and Time Zones

All times are in EDT time to prevent confusion due to time zone crossing. See the N796PG flight status page for this flight to view local times or setup timezone preferences in your user account.

Time Position Orientation Groundspeed Altitude Reporting Facility
EDT Latitude Longitude Course Direction KTS MPH feet Rate Location/Type
12:04PM 27.4911 -80.3872 336° Northwest 153 176 800  Level Miami Center
12:05PM 27.4675 -80.4169 228° Southwest 132 152 1,700 900 Climbing Miami Center
12:06PM 27.4417 -80.4511 230° Southwest 132 152 2,700 600 Climbing Miami Center
12:07PM 27.7315 -80.4741 336° Northwest  Level FlightAware Approximate
12:07PM 27.4325 -80.4883 255° West 132 152 3,000  Level Miami Center
12:08PM 27.4608 -80.5172 318° Northwest 142 163 3,000 180 Level Miami Center
12:09PM 27.5003 -80.5233 352° North 142 163 3,400 480 Climbing Miami Center
12:10PM 27.5419 -80.5339 347° North 150 173 4,000 660 Climbing Miami Center
12:11PM 27.5856 -80.5400 353° North 145 167 4,800 720 Climbing Miami Center
12:12PM 27.6250 -80.5506 347° North 145 167 5,500 600 Climbing Miami Center
12:13PM 27.6622 -80.5567 352° North 145 167 6,100 600 Climbing Miami Center
12:14PM 27.6997 -80.5625 352° North 145 167 6,800 420 Climbing Miami Center
12:15PM 27.7433 -80.5686 353° North 145 167 7,000 60 Climbing Miami Center
12:16PM 27.7892 -80.5772 351° North 162 186 7,000  Level Miami Center
12:18PM 27.8833 -80.6000 348° North 178 205 7,000  Level Orlando TRACON
12:19PM 27.9333 -80.6000 360° North 178 205 7,000  Level Orlando TRACON
12:20PM 27.9667 -80.6167 336° Northwest 178 205 7,000  Level Orlando TRACON
12:20PM 28.0167 -80.6167 360° North 177 204 7,000  Level Orlando TRACON
12:22PM 28.0667 -80.6333 344° North 177 204 7,000  Level Orlando TRACON
12:23PM 28.1167 -80.6333 360° North 176 203 7,000  Level Orlando TRACON
12:24PM 28.1667 -80.6667 330° Northwest 177 204 7,000  Level Orlando TRACON
12:25PM 28.2167 -80.6833 344° North 175 201 7,000  Level Orlando TRACON
12:26PM 28.2667 -80.7000 344° North 174 200 7,000  Level Orlando TRACON
12:26PM 28.3000 -80.7167 336° Northwest 173 199 7,000  Level Orlando TRACON
12:27PM 28.3500 -80.7333 344° North 174 200 7,000  Level Orlando TRACON
12:28PM 28.4000 -80.7500 344° North 174 200 7,000  Level Orlando TRACON
12:29PM 28.4333 -80.7667 336° Northwest 176 203 7,000  Level Orlando TRACON
12:30PM 28.4833 -80.7833 344° North 172 198 7,000  Level Orlando TRACON
12:31PM 28.5333 -80.8000 344° North 174 200 7,000  Level Orlando TRACON
12:33PM 28.5833 -80.8167 344° North 174 200 7,000  Level Orlando TRACON
12:34PM 28.6333 -80.8333 344° North 173 199 7,000  Level Orlando TRACON
12:35PM 28.6667 -80.8667 319° Northwest 174 200 7,000  Level Orlando TRACON
12:36PM 28.7167 -80.8833 344° North 174 200 7,000  Level Orlando TRACON
12:37PM 28.7878 -80.9075 343° North 175 201 7,000  Level Jacksonville Center
12:38PM 28.8278 -80.9256 338° Northwest 175 201 7,000  Level Jacksonville Center
12:39PM 28.8761 -80.9436 342° North 173 199 7,000  Level Jacksonville Center
12:40PM 28.9264 -80.9639 341° North 174 200 7,000  Level Jacksonville Center
12:41PM 28.9706 -80.9844 338° Northwest 172 198 7,000  Level Jacksonville Center
12:42PM 29.0144 -80.9978 345° North 173 199 7,000  Level Jacksonville Center
12:43PM 29.0608 -81.0183 339° North 175 201 7,000  Level Jacksonville Center
12:44PM 29.1111 -81.0389 340° North 173 199 7,000  Level Jacksonville Center
12:45PM 29.1531 -81.0547 342° North 174 200 7,000  Level Jacksonville Center
12:46PM 29.1994 -81.0728 341° North 172 198 7,000  Level Jacksonville Center
12:47PM 29.2456 -81.0933 339° North 172 198 7,000  Level Jacksonville Center
12:48PM 29.2917 -81.1092 343° North 170 196 7,000  Level Jacksonville Center
12:49PM 29.3339 -81.1369 330° Northwest 170 196 7,000  Level Jacksonville Center
12:50PM 29.3758 -81.1625 332° Northwest 174 200 7,000  Level Jacksonville Center
12:51PM 29.4181 -81.1903 330° Northwest 173 199 7,000  Level Jacksonville Center
12:52PM 29.4603 -81.2206 328° Northwest 171 197 7,000  Level Jacksonville Center
12:53PM 29.5003 -81.2486 329° Northwest 169 194 7,000  Level Jacksonville Center
12:54PM 29.5381 -81.2694 334° Northwest 161 185 7,000  Level Jacksonville Center
12:55PM 29.5758 -81.2975 327° Northwest 168 193 7,000  Level Jacksonville Center
12:56PM 29.6139 -81.3231 330° Northwest 164 189 7,000  Level Jacksonville Center
12:57PM 29.6558 -81.3511 330° Northwest 168 193 7,100  Climbing Jacksonville Center
12:58PM 29.6981 -81.3767 332° Northwest 168 193 7,100 -60 Level Jacksonville Center
12:59PM 29.7400 -81.4047 330° Northwest 169 194 7,000 -60 Descending Jacksonville Center
01:00PM 29.7822 -81.4328 330° Northwest 169 194 7,000  Level Jacksonville Center
01:01PM 29.8264 -81.4633 329° Northwest 169 194 7,000  Level Jacksonville Center
01:02PM 29.8683 -81.4914 330° Northwest 170 196 7,000  Level Jacksonville Center
01:03PM 29.9106 -81.5172 332° Northwest 173 199 7,000  Level Jacksonville Center
01:04PM 29.9525 -81.5453 330° Northwest 173 199 7,000  Level Jacksonville Center
01:05PM 29.9925 -81.5736 328° Northwest 171 197 7,000  Level Jacksonville Center
01:06PM 30.0344 -81.6017 330° Northwest 171 197 7,000  Level Jacksonville Center
01:07PM 30.0767 -81.6300 330° Northwest 169 194 7,000  Level Jacksonville Center
01:09PM 30.1228 -81.6606 330° Northwest 173 199 7,000  Level Jacksonville Center
01:10PM 30.1628 -81.6889 329° Northwest 172 198 7,000  Level Jacksonville Center
01:11PM 30.2067 -81.7147 333° Northwest 169 194 7,000  Level Jacksonville Center
01:12PM 30.2569 -81.7167 358° North 177 204 7,000  Level Jacksonville Center
01:13PM 30.2947 -81.7353 337° Northwest 156 180 7,000  Level Jacksonville Center
01:14PM 30.3367 -81.7639 330° Northwest 170 196 7,000  Level Jacksonville Center
01:15PM 30.3786 -81.7922 330° Northwest 171 197 7,000  Level Jacksonville Center
01:16PM 30.4206 -81.8206 330° Northwest 168 193 7,000  Level Jacksonville Center
01:16PM 30.4564 -81.8442 330° Northwest 169 194 7,000  Level Jacksonville Center
01:18PM 30.5047 -81.8775 329° Northwest 174 200 7,000  Level Jacksonville Center
01:19PM 30.5425 -81.9036 329° Northwest 169 194 7,000  Level Jacksonville Center
01:20PM 30.5803 -81.9347 325° Northwest 170 196 7,000  Level Jacksonville Center
01:21PM 30.6222 -81.9608 332° Northwest 168 193 7,000  Level Jacksonville Center
01:22PM 30.6725 -81.9917 332° Northwest 167 192 7,000 -60 Level Jacksonville Center
01:23PM 30.7125 -82.0228 326° Northwest 171 197 6,900 -60 Descending Jacksonville Center
01:24PM 30.7522 -82.0514 328° Northwest 191 220 6,900  Level Jacksonville Center
01:25PM 30.7922 -82.0775 331° Northwest 185 213 6,900  Level Jacksonville Center
01:26PM 30.8319 -82.1064 328° Northwest 180 207 6,900  Level Jacksonville Center
01:27PM 30.8719 -82.1350 328° Northwest 169 194 6,900  Level Jacksonville Center
01:28PM 30.9139 -82.1636 330° Northwest 169 194 6,900  Level Jacksonville Center
01:29PM 30.9536 -82.1900 330° Northwest 169 194 6,900  Level Jacksonville Center
01:30PM 30.9933 -82.2189 328° Northwest 169 194 6,900  Level Jacksonville Center
01:31PM 31.0353 -82.2453 332° Northwest 169 194 6,900  Level Jacksonville Center
01:32PM 31.0731 -82.2764 325° Northwest 169 194 6,900  Level Jacksonville Center
01:33PM 31.1128 -82.3028 330° Northwest 169 194 6,900  Level Jacksonville Center
01:34PM 31.1528 -82.3319 328° Northwest 164 189 6,900  Level Jacksonville Center
01:35PM 31.1925 -82.3583 330° Northwest 164 189 6,900  Level Jacksonville Center
01:36PM 31.2344 -82.3847 332° Northwest 164 189 6,900  Level Jacksonville Center
01:37PM 31.2742 -82.4136 328° Northwest 164 189 6,900  Level Jacksonville Center
01:38PM 31.3117 -82.4428 326° Northwest 164 189 6,900  Level Jacksonville Center
01:39PM 31.3536 -82.4717 330° Northwest 164 189 6,900  Level Jacksonville Center
01:40PM 31.3933 -82.4958 333° Northwest 169 194 6,900  Level Jacksonville Center
01:41PM 31.4331 -82.5225 330° Northwest 169 194 6,900  Level Jacksonville Center
01:42PM 31.4728 -82.5492 330° Northwest 164 189 6,900  Level Jacksonville Center
01:43PM 31.5128 -82.5806 326° Northwest 164 189 6,900  Level Jacksonville Center
01:44PM 31.5544 -82.6097 329° Northwest 164 189 6,900 -180 Level Jacksonville Center
01:45PM 31.5942 -82.6364 330° Northwest 164 189 6,600 -540 Descending Jacksonville Center
01:46PM 31.6381 -82.6681 328° Northwest 164 189 5,900 -300 Descending Jacksonville Center
01:47PM 31.6778 -82.6972 328° Northwest 164 189 6,000  Climbing Jacksonville Center
01:48PM 31.7175 -82.7264 328° Northwest 164 189 5,900 -60 Descending Jacksonville Center
01:49PM 31.7572 -82.7533 330° Northwest 164 189 5,900  Level Jacksonville Center
01:50PM 31.7947 -82.7803 329° Northwest 164 189 5,900  Level Jacksonville Center
01:51PM 31.8344 -82.8069 330° Northwest 164 189 5,900  Level Jacksonville Center
01:52PM 31.8742 -82.8364 328° Northwest 164 189 5,900  Level Jacksonville Center
01:53PM 31.9119 -82.8656 327° Northwest 164 189 5,900  Level Jacksonville Center
01:54PM 31.9494 -82.8925 329° Northwest 164 189 5,900  Level Jacksonville Center
01:55PM 31.9892 -82.9194 330° Northwest 164 189 5,900  Level Jacksonville Center
01:57PM 32.0833 -82.9833 330° Northwest 166 191 6,000  Climbing Atlanta TRACON
01:58PM 32.1333 -83.0167 331° Northwest 162 186 6,000  Level Atlanta TRACON
01:59PM 32.1667 -83.0333 337° Northwest 167 192 6,000  Level Atlanta TRACON
02:00PM 32.2167 -83.0667 331° Northwest 169 194 6,000  Level Atlanta TRACON
02:01PM 32.2500 -83.0833 337° Northwest 167 192 6,000  Level Atlanta TRACON
02:02PM 32.3000 -83.1000 344° North 167 192 6,000  Level Atlanta TRACON
02:03PM 32.3333 -83.1333 320° Northwest 166 191 6,000  Level Atlanta TRACON
02:04PM 32.3833 -83.1500 344° North 165 190 6,000  Level Atlanta TRACON
02:05PM 32.4167 -83.1833 320° Northwest 163 188 6,000  Level Atlanta TRACON
02:06PM 32.4500 -83.2167 320° Northwest 163 188 6,000  Level Atlanta TRACON
02:07PM 32.4833 -83.2500 320° Northwest 161 185 6,000  Level Atlanta TRACON
02:08PM 32.5333 -83.2833 331° Northwest 167 192 6,000  Level Atlanta TRACON
02:09PM 32.5667 -83.3000 337° Northwest 165 190 6,000  Level Atlanta TRACON
02:10PM 32.6167 -83.3167 344° North 165 190 6,000  Level Atlanta TRACON
02:11PM 32.6500 -83.3333 337° Northwest 164 189 6,000  Level Atlanta TRACON
02:12PM 32.7000 -83.3500 344° North 162 186 6,000  Level Atlanta TRACON
02:13PM 32.7333 -83.3667 337° Northwest 165 190 6,000  Level Atlanta TRACON
02:14PM 32.7833 -83.4000 331° Northwest 166 191 6,000  Level Atlanta TRACON
02:15PM 32.8333 -83.4167 344° North 167 192 6,000  Level Atlanta TRACON
02:16PM 32.8667 -83.4333 337° Northwest 167 192 6,000  Level Atlanta TRACON
02:17PM 32.9167 -83.4500 344° North 170 196 6,000  Level Atlanta TRACON
02:18PM 32.9500 -83.4667 337° Northwest 169 194 6,000  Level Atlanta TRACON
02:19PM 33.0000 -83.4833 344° North 165 190 6,000  Level Atlanta TRACON
02:20PM 33.0333 -83.5000 337° Northwest 167 192 6,000  Level Atlanta TRACON
02:21PM 33.0833 -83.5333 331° Northwest 164 189 6,000  Level Atlanta TRACON
02:22PM 33.1333 -83.5500 344° North 166 191 6,000  Level Atlanta TRACON
02:23PM 33.1667 -83.5667 337° Northwest 171 197 6,000  Level Atlanta TRACON
02:24PM 33.2167 -83.5833 344° North 164 189 6,000  Level Atlanta TRACON
02:25PM 33.2500 -83.6000 337° Northwest 161 185 6,000  Level Atlanta TRACON
02:26PM 33.3000 -83.6167 344° North 162 186 6,000  Level Atlanta TRACON
02:27PM 33.3333 -83.6333 337° Northwest 164 189 6,000  Level Atlanta TRACON
02:28PM 33.3833 -83.6667 331° Northwest 158 182 6,000 -60 Level Atlanta TRACON
02:29PM 33.4167 -83.6833 337° Northwest 155 178 5,900 -300 Descending Atlanta TRACON
02:30PM 33.4500 -83.7167 320° Northwest 171 197 5,500 -540 Descending Atlanta TRACON
02:31PM 33.5000 -83.7500 331° Northwest 169 194 4,900 -540 Descending Atlanta TRACON
02:32PM 33.5333 -83.7833 320° Northwest 176 203 4,500 -420 Descending Atlanta TRACON
02:33PM 33.5833 -83.8000 344° North 176 203 4,100 -240 Descending Atlanta TRACON
02:34PM 33.6333 -83.8167 344° North 164 189 4,100  Level Atlanta TRACON
02:35PM 33.6667 -83.8333 337° Northwest 159 183 4,100  Level Atlanta TRACON
02:36PM 33.7000 -83.8833 309° West 162 186 4,100  Level Atlanta TRACON
02:37PM 33.7333 -83.9167 320° Northwest 154 177 4,100  Level Atlanta TRACON
02:38PM 33.7667 -83.9333 337° Northwest 148 170 4,100  Level Atlanta TRACON
02:39PM 33.8000 -83.9667 320° Northwest 152 175 4,100  Level Atlanta TRACON
02:40PM 33.8333 -84.0000 320° Northwest 147 169 4,100  Level Atlanta TRACON
02:41PM 33.8667 -84.0333 320° Northwest 152 175 4,100  Level Atlanta TRACON
02:42PM 33.9000 -84.0667 320° Northwest 157 181 4,100  Level Atlanta TRACON
02:43PM 33.9333 -84.1000 320° Northwest 153 176 4,100  Level Atlanta TRACON
02:44PM 33.9667 -84.1167 337° Northwest 152 175 4,100 -300 Level Atlanta TRACON
02:45PM 34.0000 -84.1500 320° Northwest 166 191 3,500 -540 Descending Atlanta TRACON
02:46PM 34.0167 -84.2000 292° West 164 189 3,100 -300 Descending Atlanta TRACON
02:47PM 34.0000 -84.2500 248° West 164 189 3,000 -300 Descending Atlanta TRACON
02:48PM 33.9667 -84.2667 203° Southwest 154 177 2,500 -600 Descending Atlanta TRACON
02:49PM 33.9333 -84.2833 203° Southwest 117 135 1,900 -600 Descending Atlanta TRACON
02:50PM 33.9000 -84.2833 180° South 78 90 1,400 -540 Descending Atlanta TRACON
02:52PM 33.8667 -84.3000 223° Southwest  Level FlightAware Approximate
02:59PM 33.8756 -84.3020 223° Southwest  Level Estimated